Hauptseite
METAR-TAF:

METAR-TAF

Flughäfen :

Mahikeng, Südafrika

Breite: 25-47S, Länge: 025-32E, Höhe: 1281 m

Beobachtung

Neuester Wetterbericht von vor 1 Stunde und 0 Minuten, um 14:00 UTC
Wind 1 kt aus Südwest
Temperatur 24°C
Luftfeuchtigkeit 16%
Luftdruck 1027 hPa
Sichtweite 10 km oder mehr
keine Wolken unter 1500 m und keine Kumulonimbus oder Gewitterwolken

METAR: FAMM 061400Z 22001KT CAVOK 24/M03 Q1027 NOSIG

Zeit: 17:00 (15:00 UTC)

Prognose

Neuester Wetterbericht von vor 6 Stunden und 0 Minuten, um 09:00 UTC
Gültige Prognose vom 06 um 10 UTC bis 06 um 18 UTC
Wind 4 kt aus Ost
Sichtweite 10 km oder mehr
keine Wolken unter 1500 m und keine Kumulonimbus oder Gewitterwolken
Übergehend zu
vom 06 um 14 UTC bis 06 um 16 UTC
Wind 3 kt aus unterschiedlichen Richtungen

TAF: FAMM 060900Z 0610/0618 09004KT CAVOK TX24/0612Z TN09/0618Z BECMG 0614/0616 VRB03KT

Wetterbeobachtungen und Prognosen von mehr als 4000 Flughäfen (METAR und TAF Bericht).

Die verfügbaren Stationen werden durch gelbe und rote Markierungen auf der Karte dargestellt.

Führen Sie die Maus auf sie, um den Namen der Station zu sehen.

Darauf klicken, um die Beobachtung von Wetterbeobachtungen und Prognosen zu sehen.

Um die Karte zu ändern : klicken Sie auf den grünen Tasten mit einem schwarzen Kreuz Zum Vergrößern, auf den grünen Button mit einem Gedankenstrich zu verkleinern, oder auf die grünen Pfeile für benachbarte Karten.


METAR-TAF: